Time;durP1;ratioP1;P1;durP2;ratioP2;P2;SDS_P1;SDS_P2;PMS_P1;PMS_P2;Temp;Humidity;BMP_temperature;BMP_pressure;BME280_temperature;BME280_humidity;BME280_pressure;Samples;Min_cycle;Max_cycle;Signal;HPM_P1;HPM_P2
2022/04/11 00:00:20;;;;;;;7.47;4.00;;;2.40;1.00;;;;;;6096709;23;20175;-86
2022/04/11 00:02:47;;;;;;;11.53;5.37;;;2.30;1.00;;;;;;6096762;23;20176;-86
2022/04/11 00:05:14;;;;;;;9.77;4.37;;;2.30;1.00;;;;;;6096696;23;20650;-87
2022/04/11 00:07:42;;;;;;;12.37;3.70;;;2.30;1.00;;;;;;6097000;23;20558;-85
2022/04/11 00:10:09;;;;;;;7.60;3.00;;;2.20;1.00;;;;;;6096698;23;20171;-86
2022/04/11 00:12:37;;;;;;;7.07;3.30;;;2.20;1.00;;;;;;6097270;23;20477;-87
2022/04/11 00:15:07;;;;;;;8.00;3.70;;;2.20;1.00;;;;;;6096929;23;20178;-86
2022/04/11 00:17:34;;;;;;;8.97;3.80;;;2.10;1.00;;;;;;6097287;23;20171;-86
2022/04/11 00:20:01;;;;;;;11.87;3.33;;;2.00;1.00;;;;;;6097007;23;20167;-86
2022/04/11 00:22:28;;;;;;;8.63;3.50;;;2.10;1.00;;;;;;6096802;23;20572;-86
2022/04/11 00:24:57;;;;;;;10.77;3.10;;;2.00;1.00;;;;;;6096760;23;20187;-87
2022/04/11 00:27:24;;;;;;;5.83;2.80;;;2.00;1.00;;;;;;6097031;23;20171;-85
2022/04/11 00:29:51;;;;;;;10.20;3.40;;;2.00;1.00;;;;;;6096795;23;20171;-86
2022/04/11 00:32:18;;;;;;;9.57;2.97;;;2.00;1.00;;;;;;6096850;23;20223;-86
2022/04/11 00:34:45;;;;;;;8.87;3.60;;;2.00;1.00;;;;;;6096819;23;20175;-85
2022/04/11 00:37:12;;;;;;;10.80;3.30;;;1.90;1.00;;;;;;6097076;23;20175;-86
2022/04/11 00:39:38;;;;;;;6.73;2.70;;;2.00;1.00;;;;;;6097004;23;20198;-86
2022/04/11 00:42:12;;;;;;;5.63;2.50;;;2.00;1.00;;;;;;6097110;23;20185;-86
2022/04/11 00:44:39;;;;;;;6.47;2.13;;;2.00;77.90;;;;;;6097050;23;20159;-86
2022/04/11 00:47:06;;;;;;;4.23;1.90;;;2.00;99.90;;;;;;6096505;23;20167;-86
2022/04/11 00:49:33;;;;;;;10.27;2.53;;;2.10;99.90;;;;;;6096295;23;20482;-86
2022/04/11 00:52:01;;;;;;;12.07;3.07;;;2.10;99.90;;;;;;6096311;23;20573;-86
2022/04/11 00:54:30;;;;;;;4.80;2.83;;;2.20;99.90;;;;;;6096417;23;20175;-86
2022/04/11 00:56:58;;;;;;;6.37;2.57;;;2.20;99.90;;;;;;6096611;23;20551;-86
2022/04/11 00:59:27;;;;;;;5.43;2.77;;;2.20;99.90;;;;;;6096354;23;20636;-86
2022/04/11 01:01:55;;;;;;;6.23;2.80;;;2.20;99.90;;;;;;6096276;23;20623;-86
2022/04/11 01:04:26;;;;;;;11.03;3.70;;;2.20;99.90;;;;;;6096656;23;20167;-86
2022/04/11 01:06:54;;;;;;;8.37;3.27;;;2.20;99.90;;;;;;6096170;23;20180;-86
2022/04/11 01:09:21;;;;;;;6.90;2.50;;;2.20;99.90;;;;;;6096217;23;20171;-85
2022/04/11 01:11:48;;;;;;;7.90;4.00;;;2.10;99.90;;;;;;6096577;23;20222;-86
2022/04/11 01:14:15;;;;;;;8.53;3.33;;;2.10;99.90;;;;;;6096640;23;20167;-86
2022/04/11 01:16:49;;;;;;;4.87;2.50;;;2.10;99.90;;;;;;6096239;23;20175;-85
2022/04/11 01:19:16;;;;;;;7.33;2.57;;;2.20;99.90;;;;;;6096087;23;20549;-85
2022/04/11 01:21:45;;;;;;;10.23;5.37;;;2.20;99.90;;;;;;6095861;23;20172;-86
2022/04/11 01:24:12;;;;;;;8.23;3.03;;;2.20;99.90;;;;;;6096219;23;20191;-86
2022/04/11 01:26:39;;;;;;;4.13;2.40;;;2.20;99.90;;;;;;6096615;23;20191;-86
2022/04/11 01:29:09;;;;;;;9.20;2.50;;;2.30;99.90;;;;;;6095939;23;20173;-86
2022/04/11 01:31:36;;;;;;;4.50;2.10;;;2.30;99.90;;;;;;6095881;23;20226;-85
2022/04/11 01:34:03;;;;;;;8.70;2.90;;;2.30;99.90;;;;;;6096365;23;20549;-86
2022/04/11 01:36:30;;;;;;;4.93;2.17;;;2.30;99.90;;;;;;6095945;23;20222;-87
2022/04/11 01:38:58;;;;;;;5.93;2.83;;;2.40;99.90;;;;;;6096222;23;20230;-86
2022/04/11 01:41:25;;;;;;;7.30;2.73;;;2.50;1.00;;;;;;6096295;23;20242;-85
2022/04/11 01:43:52;;;;;;;7.83;3.73;;;2.50;1.00;;;;;;6096414;23;20171;-86
2022/04/11 01:46:19;;;;;;;8.33;3.83;;;2.50;1.00;;;;;;6096171;23;20192;-86
2022/04/11 01:48:46;;;;;;;14.47;7.43;;;2.60;1.00;;;;;;6095842;23;20626;-86
2022/04/11 01:51:14;;;;;;;7.20;3.60;;;2.60;1.00;;;;;;6096438;23;20167;-86
2022/04/11 01:53:41;;;;;;;9.40;3.40;;;2.60;1.00;;;;;;6111170;23;20175;-84
2022/04/11 01:56:09;;;;;;;10.17;3.83;;;2.70;1.00;;;;;;6096197;23;20179;-85
2022/04/11 01:58:36;;;;;;;6.87;3.23;;;2.70;1.00;;;;;;6096133;23;20167;-84
2022/04/11 02:01:03;;;;;;;6.40;2.87;;;2.70;1.00;;;;;;6096245;23;20230;-84
2022/04/11 02:03:30;;;;;;;10.30;3.60;;;2.80;1.00;;;;;;6095814;23;20134;-85
2022/04/11 02:05:57;;;;;;;5.90;2.73;;;2.80;1.00;;;;;;6096102;23;20243;-84
2022/04/11 02:08:24;;;;;;;6.60;2.50;;;2.90;1.00;;;;;;6096239;23;20230;-84
2022/04/11 02:10:51;;;;;;;8.23;2.90;;;2.90;1.00;;;;;;6095795;23;20175;-84
2022/04/11 02:13:20;;;;;;;7.00;2.80;;;2.90;1.00;;;;;;6096159;23;20182;-84
2022/04/11 02:15:47;;;;;;;7.77;3.73;;;2.90;1.00;;;;;;6096187;23;20227;-83
2022/04/11 02:18:14;;;;;;;9.77;3.07;;;3.00;1.00;;;;;;6096252;23;20219;-84
2022/04/11 02:20:41;;;;;;;9.30;3.50;;;3.00;1.00;;;;;;6095585;23;20227;-84
2022/04/11 02:23:08;;;;;;;4.57;2.83;;;3.10;1.00;;;;;;6095986;23;20227;-85
2022/04/11 02:25:36;;;;;;;7.47;3.30;;;3.10;1.00;;;;;;6095633;23;20483;-85
2022/04/11 02:28:03;;;;;;;6.93;2.67;;;3.20;1.00;;;;;;6096081;23;20167;-84
2022/04/11 02:30:31;;;;;;;5.77;3.00;;;3.10;1.00;;;;;;6095571;23;20493;-84
2022/04/11 02:32:58;;;;;;;8.37;3.23;;;3.10;1.00;;;;;;6095755;23;20227;-84
2022/04/11 02:35:26;;;;;;;10.77;2.70;;;3.10;1.00;;;;;;6095959;23;20219;-84
2022/04/11 02:37:53;;;;;;;6.40;3.00;;;3.10;1.00;;;;;;6096141;23;20229;-84
2022/04/11 02:40:21;;;;;;;9.00;3.00;;;3.00;99.90;;;;;;6096128;23;20167;-84
2022/04/11 02:42:48;;;;;;;6.70;3.00;;;3.00;99.90;;;;;;6095927;23;20172;-84
2022/04/11 02:45:16;;;;;;;5.73;2.70;;;3.00;99.90;;;;;;6096350;23;20171;-84
2022/04/11 02:47:45;;;;;;;14.53;9.33;;;3.00;99.90;;;;;;6097004;23;20177;-84
2022/04/11 02:50:12;;;;;;;9.63;6.20;;;3.00;99.90;;;;;;6097970;23;20171;-84
2022/04/11 02:52:39;;;;;;;7.83;5.43;;;2.90;99.90;;;;;;6097393;23;20721;-84
2022/04/11 02:55:08;;;;;;;8.57;3.30;;;2.80;99.90;;;;;;6097447;23;20693;-84
2022/04/11 02:57:36;;;;;;;6.73;2.73;;;2.80;99.90;;;;;;6097919;23;20172;-84
2022/04/11 03:00:06;;;;;;;5.63;2.97;;;2.70;99.90;;;;;;6097803;23;20171;-84
2022/04/11 03:02:33;;;;;;;7.27;2.87;;;2.60;99.90;;;;;;6071756;23;20235;-84
2022/04/11 03:05:02;;;;;;;8.40;2.97;;;2.60;99.90;;;;;;6097718;23;20214;-84
2022/04/11 03:07:29;;;;;;;7.07;3.43;;;2.60;99.90;;;;;;6097164;23;20187;-84
2022/04/11 03:09:56;;;;;;;5.27;2.90;;;2.60;99.90;;;;;;6097751;23;20175;-84
2022/04/11 03:12:23;;;;;;;5.50;3.00;;;2.60;99.90;;;;;;6097299;23;20696;-85
2022/04/11 03:14:50;;;;;;;9.53;3.57;;;2.60;99.90;;;;;;6097615;23;20171;-84
2022/04/11 03:17:18;;;;;;;8.73;4.77;;;2.70;99.90;;;;;;6097664;23;20172;-84
2022/04/11 03:19:45;;;;;;;6.93;3.20;;;2.70;99.90;;;;;;6097587;23;20505;-84
2022/04/11 03:22:14;;;;;;;5.80;2.50;;;2.70;1.00;;;;;;6097481;23;20250;-84
2022/04/11 03:24:41;;;;;;;9.13;3.17;;;2.70;1.00;;;;;;6097041;23;20191;-84
2022/04/11 03:27:08;;;;;;;6.10;3.00;;;2.70;1.00;;;;;;6097424;23;20196;-84
2022/04/11 03:29:35;;;;;;;6.43;3.10;;;2.80;1.00;;;;;;6097412;23;20222;-84
2022/04/11 03:32:02;;;;;;;9.23;4.30;;;2.80;1.00;;;;;;6097572;23;20222;-84
2022/04/11 03:34:29;;;;;;;7.47;3.33;;;2.80;1.00;;;;;;6097489;23;20175;-84
2022/04/11 03:36:56;;;;;;;9.10;3.20;;;2.90;1.00;;;;;;6097473;23;20705;-84
2022/04/11 03:39:24;;;;;;;9.83;3.10;;;2.90;1.00;;;;;;6097522;23;20171;-84
2022/04/11 03:41:51;;;;;;;4.80;3.30;;;3.00;1.00;;;;;;6097694;23;20222;-85
2022/04/11 03:44:18;;;;;;;5.33;3.23;;;3.00;1.00;;;;;;6097757;23;20168;-85
2022/04/11 03:46:45;;;;;;;7.40;2.43;;;3.10;1.00;;;;;;6097277;23;20192;-85
2022/04/11 03:49:18;;;;;;;9.47;3.17;;;3.10;1.00;;;;;;6119752;23;20554;-87
2022/04/11 03:51:48;;;;;;;6.57;2.67;;;3.20;1.00;;;;;;6123610;23;20147;-86
2022/04/11 03:54:15;;;;;;;4.70;2.67;;;3.20;1.00;;;;;;6108300;23;20206;-84
2022/04/11 03:56:43;;;;;;;11.77;2.83;;;3.30;1.00;;;;;;6096819;23;20207;-85
2022/04/11 03:59:10;;;;;;;7.67;3.63;;;3.30;1.00;;;;;;6096825;23;20167;-85
2022/04/11 04:01:37;;;;;;;10.20;5.67;;;3.30;1.00;;;;;;6097102;23;20641;-85
2022/04/11 04:04:05;;;;;;;7.83;2.70;;;3.30;1.00;;;;;;6097419;23;20542;-84
2022/04/11 04:06:32;;;;;;;6.67;2.43;;;3.30;1.00;;;;;;6099763;23;20191;-86
2022/04/11 04:08:59;;;;;;;7.43;2.43;;;3.30;1.00;;;;;;6099947;23;20171;-86
2022/04/11 04:11:26;;;;;;;7.57;2.93;;;3.20;1.00;;;;;;6100979;23;20171;-86
2022/04/11 04:13:57;;;;;;;5.57;2.97;;;3.20;1.00;;;;;;6103859;23;20171;-88
2022/04/11 04:16:24;;;;;;;4.93;2.73;;;3.20;1.00;;;;;;6123572;23;20175;-88
2022/04/11 04:18:51;;;;;;;6.27;3.17;;;3.20;1.00;;;;;;6099681;23;20171;-86
2022/04/11 04:21:18;;;;;;;7.20;2.80;;;3.10;1.00;;;;;;6099792;23;20175;-85
2022/04/11 04:23:46;;;;;;;7.27;3.03;;;3.20;1.00;;;;;;6099218;23;20658;-85
2022/04/11 04:26:13;;;;;;;5.93;3.57;;;3.10;1.00;;;;;;6101087;23;20191;-85
2022/04/11 04:28:42;;;;;;;10.17;4.93;;;3.10;1.00;;;;;;6100656;23;20179;-88
2022/04/11 04:31:10;;;;;;;11.90;5.83;;;3.10;1.00;;;;;;6100125;23;20171;-86
2022/04/11 04:33:38;;;;;;;9.13;4.73;;;3.10;1.00;;;;;;6098937;23;20606;-86
2022/04/11 04:36:05;;;;;;;7.83;4.13;;;3.10;1.00;;;;;;6096302;23;20214;-86
2022/04/11 04:38:32;;;;;;;13.27;6.27;;;3.20;1.00;;;;;;6096826;23;20222;-86
2022/04/11 04:40:59;;;;;;;28.37;10.77;;;3.20;1.00;;;;;;6096817;23;20175;-86
2022/04/11 04:43:26;;;;;;;30.67;10.40;;;3.20;1.00;;;;;;6096420;23;20175;-88
2022/04/11 04:45:53;;;;;;;9.07;3.83;;;3.30;1.00;;;;;;6096608;23;20171;-87
2022/04/11 04:48:22;;;;;;;21.63;8.30;;;3.30;1.00;;;;;;6096994;23;20247;-87
2022/04/11 04:50:49;;;;;;;19.13;6.87;;;3.40;1.00;;;;;;6096371;23;20694;-86
2022/04/11 04:53:16;;;;;;;10.00;3.30;;;3.40;1.00;;;;;;6096241;23;20702;-87
2022/04/11 04:55:43;;;;;;;8.87;4.17;;;3.60;1.00;;;;;;6096430;23;20176;-86
2022/04/11 04:58:10;;;;;;;16.37;6.40;;;3.70;1.00;;;;;;6099319;23;20191;-86
2022/04/11 05:00:37;;;;;;;34.60;12.83;;;3.80;23.40;;;;;;6095936;23;20173;-85
2022/04/11 05:03:05;;;;;;;21.93;8.60;;;3.90;63.20;;;;;;6099263;23;20173;-84
2022/04/11 05:05:35;;;;;;;11.53;5.20;;;4.20;1.00;;;;;;6100797;23;20175;-87
2022/04/11 05:08:02;;;;;;;8.27;3.93;;;4.80;99.90;;;;;;6096292;23;20552;-86
2022/04/11 05:10:29;;;;;;;;;;;5.50;1.00;;;;;;6096974;23;20186;-87
2022/04/11 05:12:56;;;;;;;6.35;3.90;;;6.70;1.00;;;;;;6098022;23;20036;-86
2022/04/11 05:15:23;;;;;;;8.00;2.83;;;8.10;62.00;;;;;;6097834;23;20699;-85
2022/04/11 05:17:50;;;;;;;7.10;2.47;;;9.60;99.90;;;;;;6096478;23;20605;-86
2022/04/11 05:20:17;;;;;;;9.00;3.60;;;10.80;1.00;;;;;;6096006;23;20245;-86
2022/04/11 05:22:46;;;;;;;17.77;6.30;;;11.80;1.00;;;;;;6096116;23;20171;-89
2022/04/11 05:25:14;;;;;;;13.47;5.67;;;11.90;1.00;;;;;;6096953;23;20651;-87
2022/04/11 05:27:41;;;;;;;10.90;4.40;;;11.70;1.00;;;;;;6097502;23;20187;-86
2022/04/11 05:30:09;;;;;;;12.13;4.30;;;11.30;99.90;;;;;;6102750;23;20177;-85
2022/04/11 05:32:36;;;;;;;20.20;7.47;;;10.70;1.00;;;;;;6102378;23;20169;-87
2022/04/11 05:35:04;;;;;;;9.57;3.67;;;10.10;1.00;;;;;;6098815;23;20224;-86
2022/04/11 05:37:31;;;;;;;12.30;4.53;;;10.00;26.00;;;;;;6105589;23;20199;-85
2022/04/11 05:39:59;;;;;;;7.67;3.20;;;11.00;99.90;;;;;;6103165;23;20228;-90
2022/04/11 05:42:26;;;;;;;9.67;3.57;;;12.20;99.90;;;;;;6096380;23;20158;-87
2022/04/11 05:44:53;;;;;;;;;;;13.40;1.00;;;;;;6103068;23;20221;-87
2022/04/11 05:47:20;;;;;;;13.68;5.78;;;14.20;99.90;;;;;;6100433;23;20186;-86
2022/04/11 05:49:58;;;;;;;9.00;3.67;;;14.10;99.90;;;;;;6106713;23;20157;-89
2022/04/11 05:52:25;;;;;;;21.80;8.90;;;13.70;8.70;;;;;;6104651;23;20159;-87
2022/04/11 05:54:52;;;;;;;10.73;4.67;;;12.90;1.00;;;;;;6099434;23;20684;-86
2022/04/11 05:57:43;;;;;;;20.07;9.10;;;12.40;1.00;;;;;;6110826;23;20204;-88
2022/04/11 06:00:31;;;;;;;14.87;6.03;;;12.00;1.00;;;;;;6120471;23;20187;-91
2022/04/11 06:03:14;;;;;;;46.70;17.30;;;11.70;3.90;;;;;;6110336;23;20171;-90
2022/04/11 06:05:47;;;;;;;9.33;3.40;;;11.60;23.40;;;;;;6121068;23;20171;-91
2022/04/11 06:08:26;;;;;;;15.47;6.17;;;11.40;14.80;;;;;;6117302;23;20193;-91
2022/04/11 06:11:17;;;;;;;17.77;7.03;;;11.20;22.70;;;;;;6120586;23;20181;-91
2022/04/11 06:14:00;;;;;;;11.37;4.13;;;11.50;99.90;;;;;;6121069;23;20160;-91
2022/04/11 06:16:51;;;;;;;6.97;3.27;;;11.80;42.60;;;;;;6120577;23;20181;-88
2022/04/11 06:22:23;;;;;;;53.80;22.07;;;11.70;16.10;;;;;;6120761;23;20545;-90
2022/04/11 06:25:12;;;;;;;60.67;21.43;;;12.20;99.90;;;;;;6121768;23;20182;-92
2022/04/11 06:27:45;;;;;;;38.50;16.43;;;13.00;99.90;;;;;;6122631;23;20190;-92
2022/04/11 06:30:31;;;;;;;19.93;8.93;;;13.50;1.00;;;;;;6121565;23;20609;-91
2022/04/11 06:33:10;;;;;;;19.80;9.17;;;13.40;1.00;;;;;;6115428;23;20213;-93
2022/04/11 06:35:54;;;;;;;37.00;15.90;;;13.20;1.00;;;;;;6122625;23;20171;-92
2022/04/11 06:38:42;;;;;;;91.80;35.20;;;13.40;1.00;;;;;;6120480;23;20171;-92
2022/04/11 06:41:31;;;;;;;13.30;5.80;;;13.60;1.00;;;;;;6118266;23;20171;-90
2022/04/11 06:47:06;;;;;;;45.75;17.85;;;14.90;1.00;;;;;;6116041;23;20065;-91
2022/04/11 06:52:19;;;;;;;27.10;11.00;;;16.20;1.00;;;;;;6100180;23;20167;-87
2022/04/11 06:54:56;;;;;;;37.15;13.23;;;15.70;1.00;;;;;;6109985;23;20202;-92
2022/04/11 06:57:46;;;;;;;19.20;7.82;;;15.20;1.00;;;;;;6119320;23;20168;-91
2022/04/11 07:00:46;;;;;;;9.25;4.30;;;15.20;1.00;;;;;;6120433;23;20195;-89
2022/04/11 07:03:14;;;;;;;12.73;5.35;;;15.20;1.00;;;;;;6115004;23;20186;-87
2022/04/11 07:05:54;;;;;;;78.15;30.63;;;14.80;1.00;;;;;;6120947;23;20168;-94
2022/04/11 07:08:21;;;;;;;99.95;41.35;;;15.10;1.00;;;;;;6114900;23;20215;-89
2022/04/11 07:10:48;;;;;;;54.17;26.52;;;16.10;1.00;;;;;;6104255;23;20173;-90
2022/04/11 07:13:17;;;;;;;;;;;17.00;1.00;;;;;;6117207;23;20075;-92
2022/04/11 07:15:52;;;;;;;48.08;27.30;;;17.70;1.00;;;;;;6106719;23;20188;-92
2022/04/11 07:18:41;;;;;;;26.88;17.05;;;18.10;1.00;;;;;;6112375;23;20177;-87
2022/04/11 07:21:21;;;;;;;96.60;46.38;;;17.40;1.00;;;;;;6112860;23;20211;-91
2022/04/11 07:23:51;;;;;;;72.80;35.90;;;16.60;1.00;;;;;;6115275;23;20183;-92
2022/04/11 07:26:18;;;;;;;25.50;14.02;;;15.60;1.00;;;;;;6103624;23;20195;-87
2022/04/11 07:28:47;;;;;;;30.33;12.63;;;14.70;1.00;;;;;;6109984;23;20240;-86
2022/04/11 07:31:27;;;;;;;40.97;26.13;;;14.10;1.00;;;;;;6114297;23;20231;-89
2022/04/11 07:33:55;;;;;;;;;;;13.80;1.00;;;;;;6112510;23;20154;-88
2022/04/11 07:36:25;;;;;;;19.40;9.60;;;14.00;1.00;;;;;;6109022;23;20055;-89
2022/04/11 07:39:00;;;;;;;8.00;4.03;;;14.10;1.00;;;;;;6122480;23;20490;-89
2022/04/11 07:41:40;;;;;;;11.93;6.00;;;14.20;1.00;;;;;;6121360;23;20147;-91
2022/04/11 07:44:20;;;;;;;21.63;12.13;;;14.60;1.00;;;;;;6117821;23;20153;-92
2022/04/11 07:46:55;;;;;;;10.20;5.17;;;14.80;1.00;;;;;;6120554;23;20174;-91
2022/04/11 07:49:42;;;;;;;15.03;7.33;;;14.60;1.00;;;;;;6094392;23;20170;-92
2022/04/11 07:52:15;;;;;;;4.80;2.88;;;14.30;1.00;;;;;;6120185;23;20165;-92
2022/04/11 07:54:51;;;;;;;16.10;10.10;;;14.30;1.00;;;;;;6119297;23;20179;-87
2022/04/11 07:57:40;;;;;;;17.57;9.83;;;14.30;1.00;;;;;;6123046;23;20158;-90
2022/04/11 08:00:28;;;;;;;8.07;4.80;;;13.90;1.00;;;;;;6121324;23;20165;-93
2022/04/11 08:03:07;;;;;;;14.73;9.27;;;13.30;1.00;;;;;;6121450;23;20208;-90
2022/04/11 08:06:10;;;;;;;11.23;4.80;;;12.80;1.00;;;;;;6119474;23;20183;-93
2022/04/11 08:08:44;;;;;;;7.83;4.97;;;12.30;1.00;;;;;;6121703;23;20178;-89
2022/04/11 08:11:14;;;;;;;7.27;3.37;;;11.80;1.00;;;;;;6121409;23;20203;-89
2022/04/11 08:13:42;;;;;;;35.30;22.60;;;11.50;1.00;;;;;;6120974;23;20193;-91
2022/04/11 08:16:13;;;;;;;17.33;11.27;;;11.20;1.00;;;;;;6121704;23;20167;-92
2022/04/11 08:19:04;;;;;;;;;;;;;;;;;;;;;
2022/04/11 08:21:37;;;;;;;6.80;3.50;;;10.80;1.00;;;;;;6120044;23;20157;-88
2022/04/11 08:24:21;;;;;;;27.90;14.67;;;10.50;1.00;;;;;;6121322;23;20278;-90
2022/04/11 08:26:54;;;;;;;34.87;21.57;;;10.30;1.00;;;;;;6117844;23;20202;-91
2022/04/11 08:29:38;;;;;;;31.87;22.53;;;10.10;1.00;;;;;;6121904;23;20171;-90
2022/04/11 08:32:32;;;;;;;33.40;23.37;;;10.10;1.00;;;;;;6121210;23;20554;-89
2022/04/11 08:35:05;;;;;;;13.27;5.43;;;10.00;1.00;;;;;;6106571;23;20160;-90
2022/04/11 08:37:40;;;;;;;8.73;4.07;;;9.90;1.00;;;;;;6118639;23;20177;-87
2022/04/11 08:40:18;;;;;;;14.90;8.03;;;9.80;1.00;;;;;;6122154;23;20170;-90
2022/04/11 08:43:00;;;;;;;11.70;6.17;;;9.90;1.00;;;;;;6121459;23;20160;-91
2022/04/11 08:45:36;;;;;;;10.07;6.87;;;9.90;1.00;;;;;;6117276;23;20166;-90
2022/04/11 08:48:08;;;;;;;7.27;4.80;;;10.00;1.00;;;;;;6117062;23;20198;-89
2022/04/11 08:50:44;;;;;;;12.67;9.00;;;10.10;1.00;;;;;;6118018;23;20190;-89
2022/04/11 08:53:32;;;;;;;11.63;6.10;;;10.00;1.00;;;;;;6118199;23;20192;-88
2022/04/11 08:56:26;;;;;;;6.80;2.90;;;10.00;1.00;;;;;;6120381;23;20164;-89
2022/04/11 09:02:03;;;;;;;16.60;7.30;;;9.80;1.00;;;;;;6112951;23;20174;-91
2022/04/11 09:04:48;;;;;;;25.43;10.47;;;9.80;1.00;;;;;;6119196;23;20145;-92
2022/04/11 09:07:18;;;;;;;20.97;11.17;;;9.80;1.00;;;;;;6109964;23;20584;-88
2022/04/11 09:09:47;;;;;;;11.63;5.70;;;9.80;1.00;;;;;;6110333;23;20205;-90
2022/04/11 09:12:19;;;;;;;15.33;8.00;;;9.90;1.00;;;;;;6101113;23;20174;-88
2022/04/11 09:14:56;;;;;;;19.10;11.77;;;10.00;1.00;;;;;;6115719;23;20173;-90
2022/04/11 09:17:26;;;;;;;17.27;10.07;;;10.10;1.00;;;;;;6110725;23;20232;-88
2022/04/11 09:20:07;;;;;;;18.10;9.60;;;10.00;1.00;;;;;;6097856;23;20171;-88
2022/04/11 09:22:34;;;;;;;10.00;5.47;;;10.00;1.00;;;;;;6101084;23;20242;-84
2022/04/11 09:25:13;;;;;;;8.73;5.80;;;9.90;1.00;;;;;;6100276;23;20205;-87
2022/04/11 09:27:44;;;;;;;10.03;6.70;;;9.90;1.00;;;;;;6099853;23;20186;-90
2022/04/11 09:30:22;;;;;;;7.73;5.43;;;10.20;1.00;;;;;;6099588;23;20209;-90
2022/04/11 09:33:02;;;;;;;17.80;13.23;;;10.40;1.00;;;;;;6097538;23;20167;-91
2022/04/11 09:35:37;;;;;;;21.23;12.23;;;10.50;1.00;;;;;;6100243;23;20542;-91
2022/04/11 09:38:09;;;;;;;15.70;9.60;;;10.80;1.00;;;;;;6099066;23;20163;-89
2022/04/11 09:40:43;;;;;;;12.23;7.30;;;11.10;1.00;;;;;;6102772;23;20174;-86
2022/04/11 09:43:12;;;;;;;16.67;8.93;;;11.50;1.00;;;;;;6099966;23;20218;-90
2022/04/11 09:45:42;;;;;;;22.50;12.67;;;12.10;1.00;;;;;;6098866;23;20174;-88
2022/04/11 09:48:16;;;;;;;6.97;5.67;;;12.20;1.00;;;;;;6102456;23;20225;-92
2022/04/11 09:50:51;;;;;;;7.10;3.87;;;12.10;1.00;;;;;;6109807;23;20165;-91
2022/04/11 09:53:19;;;;;;;8.50;5.53;;;11.90;1.00;;;;;;6096495;23;20164;-88
2022/04/11 09:55:59;;;;;;;9.83;6.60;;;11.70;1.00;;;;;;6105886;23;20156;-89
2022/04/11 09:58:26;;;;;;;10.20;7.73;;;11.50;1.00;;;;;;6101784;23;20168;-87
2022/04/11 10:00:55;;;;;;;12.10;8.90;;;11.20;1.00;;;;;;6096923;23;20173;-88
2022/04/11 10:03:24;;;;;;;10.10;7.93;;;10.90;1.00;;;;;;6097035;23;20168;-88
2022/04/11 10:05:51;;;;;;;9.83;8.53;;;10.70;1.00;;;;;;6096882;23;20476;-89
2022/04/11 10:08:43;;;;;;;9.83;8.80;;;10.80;1.00;;;;;;6107618;23;20239;-92
2022/04/11 10:11:12;;;;;;;10.33;7.60;;;11.00;1.00;;;;;;6098294;23;20230;-89
2022/04/11 10:13:57;;;;;;;9.30;7.93;;;11.30;1.00;;;;;;6118710;23;20159;-94
2022/04/11 10:16:44;;;;;;;7.17;6.53;;;11.70;1.00;;;;;;6118261;23;20185;-93
2022/04/11 10:19:12;;;;;;;11.03;5.93;;;11.90;1.00;;;;;;6102432;23;20531;-88
2022/04/11 10:21:42;;;;;;;8.20;6.33;;;12.10;1.00;;;;;;6101331;23;20680;-85
2022/04/11 10:24:17;;;;;;;27.43;15.67;;;12.10;1.00;;;;;;6101698;23;20178;-86
2022/04/11 10:26:49;;;;;;;36.93;20.47;;;12.30;1.00;;;;;;6102494;23;20162;-86
2022/04/11 10:29:33;;;;;;;13.70;9.43;;;12.30;1.00;;;;;;6101196;23;20711;-86
2022/04/11 10:32:07;;;;;;;8.57;7.60;;;12.10;1.00;;;;;;6101290;23;20168;-90
2022/04/11 10:34:52;;;;;;;6.50;5.13;;;11.80;1.00;;;;;;6097900;23;20164;-86
2022/04/11 10:37:21;;;;;;;9.97;7.80;;;11.70;1.00;;;;;;6097605;23;20162;-87
2022/04/11 10:39:49;;;;;;;6.43;4.80;;;11.80;1.00;;;;;;6099111;23;20170;-88
2022/04/11 10:42:22;;;;;;;10.10;6.50;;;12.00;1.00;;;;;;6100131;23;20224;-88
2022/04/11 10:44:53;;;;;;;27.73;14.77;;;12.20;1.00;;;;;;6097786;23;20160;-84
2022/04/11 10:47:34;;;;;;;13.80;10.10;;;12.30;1.00;;;;;;6099250;23;20255;-86
2022/04/11 10:50:27;;;;;;;13.77;9.63;;;12.20;1.00;;;;;;6100306;23;20609;-84
2022/04/11 10:53:25;;;;;;;11.23;8.07;;;12.10;1.00;;;;;;6100616;23;20158;-85
2022/04/11 10:55:57;;;;;;;13.37;9.87;;;12.20;1.00;;;;;;6100501;23;20164;-85
2022/04/11 10:58:47;;;;;;;7.73;5.00;;;12.30;1.00;;;;;;6099298;23;20285;-87
2022/04/11 11:01:15;;;;;;;9.53;7.70;;;12.40;1.00;;;;;;6099568;23;20174;-87
2022/04/11 11:03:58;;;;;;;4.90;3.73;;;12.50;1.00;;;;;;6100212;23;20249;-87
2022/04/11 11:06:25;;;;;;;36.63;23.73;;;12.50;1.00;;;;;;6100338;23;20603;-87
2022/04/11 11:09:15;;;;;;;18.97;16.00;;;12.60;1.00;;;;;;6105639;23;20273;-88
2022/04/11 11:11:43;;;;;;;10.13;7.37;;;12.50;1.00;;;;;;6100817;23;20225;-88
2022/04/11 11:14:42;;;;;;;8.20;6.13;;;12.30;1.00;;;;;;6102803;23;20180;-88
2022/04/11 11:17:10;;;;;;;8.63;3.40;;;12.30;1.00;;;;;;6103194;23;20548;-87
2022/04/11 11:20:05;;;;;;;3.37;2.60;;;12.30;1.00;;;;;;6103218;23;20175;-88
2022/04/11 11:22:34;;;;;;;2.90;2.10;;;12.40;1.00;;;;;;6101688;23;20637;-87
2022/04/11 11:25:18;;;;;;;3.17;2.00;;;12.50;1.00;;;;;;6110037;23;20179;-89
2022/04/11 11:27:49;;;;;;;4.90;2.27;;;12.60;1.00;;;;;;6100430;23;20155;-86
2022/04/11 11:30:17;;;;;;;2.53;1.90;;;12.70;1.00;;;;;;6103911;23;20201;-87
2022/04/11 11:32:44;;;;;;;7.10;1.97;;;12.90;1.00;;;;;;6108478;23;20174;-86
2022/04/11 11:35:12;;;;;;;5.23;1.60;;;13.10;1.00;;;;;;6100110;23;20175;-87
2022/04/11 11:37:39;;;;;;;4.53;1.70;;;13.20;1.00;;;;;;6109234;23;20161;-88
2022/04/11 11:40:09;;;;;;;4.10;1.90;;;13.30;1.00;;;;;;6098878;23;20173;-88
2022/04/11 11:42:38;;;;;;;3.37;1.50;;;13.20;1.00;;;;;;6104572;23;20175;-87
2022/04/11 11:45:07;;;;;;;3.53;1.40;;;13.10;1.00;;;;;;6102531;23;20547;-88
2022/04/11 11:47:36;;;;;;;3.60;1.70;;;13.10;1.00;;;;;;6102877;23;20209;-87
2022/04/11 11:50:05;;;;;;;3.03;1.60;;;13.20;1.00;;;;;;6096886;23;20250;-87
2022/04/11 11:52:32;;;;;;;2.37;1.20;;;13.30;1.00;;;;;;6101550;23;20173;-87
2022/04/11 11:55:00;;;;;;;2.03;1.23;;;13.30;1.00;;;;;;6109693;23;20573;-89
2022/04/11 11:57:28;;;;;;;5.77;1.50;;;13.40;1.00;;;;;;6104795;23;20172;-88
2022/04/11 11:59:59;;;;;;;1.97;1.27;;;13.50;1.00;;;;;;6097177;23;20176;-87
2022/04/11 12:05:20;;;;;;;1.93;1.13;;;13.70;1.00;;;;;;6097188;23;20175;-88
2022/04/11 12:07:47;;;;;;;3.60;1.27;;;13.70;1.00;;;;;;6097353;23;20247;-89
2022/04/11 12:10:14;;;;;;;2.47;1.40;;;13.60;1.00;;;;;;6097119;23;20259;-88
2022/04/11 12:12:43;;;;;;;3.23;1.50;;;13.40;1.00;;;;;;6096965;23;20168;-88
2022/04/11 12:15:10;;;;;;;3.33;1.37;;;13.20;1.00;;;;;;6097271;23;20231;-88
2022/04/11 12:17:39;;;;;;;3.07;1.10;;;12.90;1.00;;;;;;6096623;23;20642;-89
2022/04/11 12:20:11;;;;;;;2.70;1.20;;;12.70;1.00;;;;;;6099318;23;20178;-90
2022/04/11 12:22:41;;;;;;;3.50;1.50;;;12.50;1.00;;;;;;6098033;23;20167;-87
2022/04/11 12:25:21;;;;;;;4.77;2.10;;;12.40;1.00;;;;;;6098283;23;20213;-87
2022/04/11 12:27:49;;;;;;;2.30;1.10;;;12.30;1.00;;;;;;6098280;23;20245;-88
2022/04/11 12:30:29;;;;;;;3.47;0.90;;;12.20;1.00;;;;;;6097980;23;20533;-91
2022/04/11 12:32:56;;;;;;;4.43;1.43;;;12.00;1.00;;;;;;6110331;23;20161;-87
2022/04/11 12:35:26;;;;;;;3.63;1.27;;;11.90;1.00;;;;;;6113157;23;20231;-90
2022/04/11 12:38:31;;;;;;;2.63;1.30;;;11.80;1.00;;;;;;6111183;23;20507;-89
2022/04/11 12:41:26;;;;;;;4.00;1.27;;;11.70;1.00;;;;;;6111899;23;20194;-92
2022/04/11 12:44:07;;;;;;;2.43;1.27;;;11.60;1.00;;;;;;6109222;23;20171;-89
2022/04/11 12:46:36;;;;;;;3.50;1.73;;;11.50;1.00;;;;;;6108396;23;20193;-91
2022/04/11 12:49:04;;;;;;;3.00;1.30;;;11.40;1.00;;;;;;6101939;23;20195;-87
2022/04/11 12:51:31;;;;;;;2.60;1.40;;;11.40;1.00;;;;;;6103072;23;20252;-89
2022/04/11 12:54:06;;;;;;;1.93;1.37;;;11.50;1.00;;;;;;6101455;23;20227;-91
2022/04/11 12:56:44;;;;;;;3.37;1.87;;;11.60;1.00;;;;;;6104235;23;20167;-86
2022/04/11 12:59:28;;;;;;;4.20;2.20;;;11.70;1.00;;;;;;6104018;23;20160;-89
2022/04/11 13:01:57;;;;;;;1.50;1.13;;;11.70;1.00;;;;;;6100561;23;20152;-89
2022/04/11 13:04:25;;;;;;;1.63;1.00;;;11.70;1.00;;;;;;6099103;23;20224;-90
2022/04/11 13:07:05;;;;;;;2.53;1.50;;;11.70;1.00;;;;;;6112297;23;20177;-88
2022/04/11 13:09:33;;;;;;;4.07;1.60;;;11.70;1.00;;;;;;6102312;23;20207;-87
2022/04/11 13:12:02;;;;;;;3.10;1.20;;;11.60;1.00;;;;;;6098012;23;20635;-88
2022/04/11 13:14:30;;;;;;;3.60;1.50;;;11.50;1.00;;;;;;6097893;23;20545;-90
2022/04/11 13:19:42;;;;;;;3.03;1.90;;;11.30;1.00;;;;;;6105847;23;20171;-87
2022/04/11 13:22:09;;;;;;;2.70;1.73;;;11.20;1.00;;;;;;6111594;23;20167;-88
2022/04/11 13:24:36;;;;;;;4.90;1.73;;;11.20;1.00;;;;;;6107950;23;20188;-88
2022/04/11 13:27:05;;;;;;;6.27;1.90;;;11.20;1.00;;;;;;6105956;23;20237;-87
2022/04/11 13:29:32;;;;;;;2.30;1.57;;;11.30;1.00;;;;;;6108269;23;20254;-85
2022/04/11 13:32:00;;;;;;;4.17;2.13;;;11.30;1.00;;;;;;6105741;23;20181;-86
2022/04/11 13:34:28;;;;;;;1.83;1.67;;;11.50;1.00;;;;;;6109073;23;20169;-87
2022/04/11 13:36:56;;;;;;;2.87;1.63;;;11.60;1.00;;;;;;6107710;23;20177;-87